createdAt,value
2019-03-21T17:41:07.716Z,57.47
2019-03-21T17:43:39.679Z,69.07
2019-03-21T17:46:11.028Z,67.33
2019-03-21T17:48:42.679Z,70.97
2019-03-21T17:51:14.065Z,79.30
2019-03-21T17:53:45.827Z,73.20
2019-03-21T17:56:17.202Z,63.83
2019-03-21T17:58:50.987Z,76.67
2019-03-21T18:01:23.070Z,83.73
2019-03-21T18:03:54.707Z,83.33
2019-03-21T18:06:26.430Z,95.30
2019-03-21T18:08:57.983Z,86.20
2019-03-21T18:11:30.563Z,77.63
2019-03-21T18:14:03.833Z,64.47
2019-03-21T18:16:35.426Z,67.43
2019-03-21T18:19:06.780Z,75.97
2019-03-21T18:21:39.802Z,71.23
2019-03-21T18:24:12.365Z,81.10
2019-03-21T18:26:43.820Z,80.07
2019-03-21T18:29:15.206Z,90.37
2019-03-21T18:31:47.878Z,82.27
2019-03-21T18:34:19.581Z,92.57
2019-03-21T18:36:51.014Z,100.03
2019-03-21T18:39:22.534Z,109.70
2019-03-21T18:41:55.519Z,241.70
2019-03-21T18:44:27.252Z,176.70
2019-03-21T18:46:58.650Z,103.87
2019-03-21T18:49:30.038Z,68.10
2019-03-21T18:52:01.406Z,82.73
2019-03-21T18:54:35.213Z,100.87
2019-03-21T18:57:07.261Z,64.93
2019-03-21T18:59:40.228Z,70.27
2019-03-21T19:02:11.613Z,67.53
2019-03-21T19:04:44.443Z,101.27
2019-03-21T19:07:15.837Z,79.23
2019-03-21T19:09:50.358Z,84.27
2019-03-21T19:12:23.873Z,74.37
2019-03-21T19:14:55.207Z,74.27
2019-03-21T19:17:26.689Z,72.93
2019-03-21T19:19:58.100Z,84.97
2019-03-21T19:22:29.577Z,75.40
2019-03-21T19:25:02.466Z,71.47
2019-03-21T19:27:34.750Z,73.60
2019-03-21T19:30:21.078Z,63.13
2019-03-21T19:32:54.864Z,93.37
2019-03-21T19:35:41.389Z,74.67
2019-03-21T19:38:09.745Z,93.97
2019-03-21T19:40:41.485Z,64.67
2019-03-21T19:43:13.836Z,65.03
2019-03-21T19:45:47.436Z,82.13
2019-03-21T19:48:18.423Z,70.50
2019-03-21T19:50:52.300Z,66.03
2019-03-21T19:53:23.636Z,71.83
2019-03-21T19:56:08.018Z,65.83
2019-03-21T19:58:40.791Z,71.13
2019-03-21T20:01:16.266Z,65.23
2019-03-21T20:03:49.293Z,58.57
2019-03-21T20:06:23.044Z,59.57
2019-03-21T20:08:56.754Z,63.77
2019-03-21T20:11:31.490Z,80.23
2019-03-21T20:14:04.175Z,79.27
2019-03-21T20:16:35.976Z,66.43
2019-03-21T20:19:12.404Z,66.53
2019-03-21T20:21:48.401Z,54.27
2019-03-21T20:24:21.323Z,61.70
2019-03-21T20:26:52.950Z,51.27
2019-03-21T20:29:25.968Z,60.97
2019-03-21T20:31:57.453Z,57.23
2019-03-21T20:34:28.900Z,59.87
2019-03-21T20:37:00.251Z,56.33
2019-03-21T20:39:31.919Z,82.20
2019-03-21T20:42:03.265Z,85.20
2019-03-21T20:44:34.628Z,76.03
2019-03-21T20:47:11.729Z,87.63
2019-03-21T20:49:44.500Z,74.77
2019-03-21T20:52:15.850Z,63.97
2019-03-21T20:54:54.967Z,60.87
2019-03-21T20:57:26.499Z,90.03
2019-03-21T20:59:57.854Z,61.47
2019-03-21T21:02:29.201Z,63.70
2019-03-21T21:05:01.054Z,74.33
2019-03-21T21:07:32.477Z,101.23
2019-03-21T21:10:06.345Z,61.13
2019-03-21T21:12:38.005Z,57.57
2019-03-21T21:15:16.746Z,55.93
2019-03-21T21:17:52.396Z,59.50
2019-03-21T21:20:25.342Z,56.83
2019-03-21T21:25:44.465Z,68.97
2019-03-21T21:28:17.710Z,65.20
2019-03-21T21:30:49.061Z,65.00
2019-03-21T21:33:30.333Z,62.67
2019-03-21T21:36:04.832Z,58.80
2019-03-21T21:38:43.636Z,54.50
2019-03-21T21:41:19.821Z,59.90
2019-03-21T21:43:52.789Z,56.90
2019-03-21T21:46:25.741Z,64.80
2019-03-21T21:49:00.796Z,58.23
2019-03-21T21:51:32.632Z,56.10
2019-03-21T21:54:04.002Z,60.23
2019-03-21T21:56:35.740Z,58.23
2019-03-21T21:59:07.135Z,72.70
2019-03-21T22:01:38.476Z,68.50
2019-03-21T22:04:54.388Z,55.53
2019-03-21T22:07:33.032Z,56.50
2019-03-21T22:10:09.002Z,56.77
2019-03-21T22:12:52.189Z,50.03
2019-03-21T22:15:28.251Z,51.43
2019-03-21T22:18:04.213Z,58.83
2019-03-21T22:20:36.037Z,63.10
2019-03-21T22:23:09.968Z,61.70
2019-03-21T22:25:42.823Z,66.23
2019-03-21T22:28:19.341Z,70.17
2019-03-21T22:30:50.697Z,63.97
2019-03-21T22:33:22.196Z,64.83
2019-03-21T22:35:56.352Z,50.93
2019-03-21T22:38:30.966Z,59.20
2019-03-21T22:41:11.558Z,59.77
2019-03-21T22:43:46.267Z,62.20
2019-03-21T22:46:21.960Z,83.67
2019-03-21T22:48:55.147Z,72.60
2019-03-21T22:51:26.478Z,69.23
2019-03-21T22:53:57.826Z,76.37
2019-03-21T22:56:40.524Z,59.10
2019-03-21T22:59:03.398Z,83.90
2019-03-21T23:01:34.739Z,74.80
2019-03-21T23:04:06.107Z,68.50
2019-03-21T23:06:37.451Z,63.13
2019-03-21T23:09:09.277Z,74.53
2019-03-21T23:11:40.694Z,67.87
2019-03-21T23:14:12.054Z,69.53
2019-03-21T23:16:43.392Z,70.97
2019-03-21T23:19:16.260Z,70.37
2019-03-21T23:21:47.721Z,63.67
2019-03-21T23:24:19.064Z,70.33
2019-03-21T23:26:53.036Z,63.73
2019-03-21T23:29:23.871Z,64.90
2019-03-21T23:31:55.227Z,76.80
2019-03-21T23:34:26.880Z,64.97
2019-03-21T23:36:58.232Z,63.93
2019-03-21T23:39:29.784Z,70.07
2019-03-21T23:42:01.129Z,66.10
2019-03-21T23:44:32.684Z,66.60
2019-03-21T23:47:04.394Z,56.27
2019-03-21T23:49:35.847Z,54.40
2019-03-21T23:52:07.193Z,55.13
2019-03-21T23:54:38.550Z,50.13
2019-03-21T23:57:09.888Z,59.17
2019-03-21T23:59:41.333Z,63.17
